createdAt,value
2022-12-23T00:01:22.923Z,16.42
2022-12-23T00:03:50.779Z,17.70
2022-12-23T00:06:18.322Z,16.40
2022-12-23T00:08:46.601Z,15.30
2022-12-23T00:11:15.663Z,15.25
2022-12-23T00:14:01.732Z,18.77
2022-12-23T00:16:29.090Z,15.02
2022-12-23T00:18:56.543Z,18.40
2022-12-23T00:21:24.074Z,18.35
2022-12-23T00:23:51.886Z,16.33
2022-12-23T00:26:21.269Z,17.80
2022-12-23T00:31:18.728Z,18.58
2022-12-23T00:33:47.374Z,15.60
2022-12-23T00:36:28.396Z,18.20
2022-12-23T00:39:14.537Z,18.50
2022-12-23T00:42:01.005Z,16.70
2022-12-23T00:44:28.412Z,17.95
2022-12-23T00:46:55.749Z,18.95
2022-12-23T00:49:41.493Z,22.42
2022-12-23T00:52:10.421Z,15.40
2022-12-23T00:54:37.689Z,15.80
2022-12-23T00:57:05.338Z,21.05
2022-12-23T00:59:32.616Z,15.05
2022-12-23T01:02:18.502Z,16.73
2022-12-23T01:05:04.302Z,17.75
2022-12-23T01:07:31.667Z,15.73
2022-12-23T01:09:58.961Z,15.07
2022-12-23T01:12:26.367Z,15.57
2022-12-23T01:14:53.648Z,15.27
2022-12-23T01:17:20.980Z,15.52
2022-12-23T01:19:48.326Z,13.75
2022-12-23T01:22:15.564Z,17.13
2022-12-23T01:24:42.874Z,17.80
2022-12-23T01:27:10.206Z,15.20
2022-12-23T01:29:37.572Z,15.85
2022-12-23T01:32:04.994Z,16.27
2022-12-23T01:34:36.743Z,17.30
2022-12-23T01:37:05.104Z,17.23
2022-12-23T01:39:32.357Z,16.30
2022-12-23T01:42:18.266Z,18.58
2022-12-23T01:44:56.254Z,17.60
2022-12-23T01:47:33.275Z,15.88
2022-12-23T01:50:05.633Z,14.65
2022-12-23T01:52:35.389Z,15.30
2022-12-23T01:55:02.720Z,14.73
2022-12-23T01:57:30.268Z,15.73
2022-12-23T02:00:15.987Z,15.80
2022-12-23T02:03:03.539Z,14.90
2022-12-23T02:05:31.022Z,16.58
2022-12-23T02:08:17.461Z,13.70
2022-12-23T02:11:06.237Z,14.70
2022-12-23T02:16:16.598Z,16.52
2022-12-23T02:18:58.765Z,13.40
2022-12-23T02:21:30.529Z,13.88
2022-12-23T02:24:16.760Z,15.00
2022-12-23T02:26:47.047Z,15.10
2022-12-23T02:29:39.804Z,16.38
2022-12-23T02:32:25.458Z,15.13
2022-12-23T02:34:52.674Z,14.52
2022-12-23T02:37:38.840Z,15.98
2022-12-23T02:40:06.104Z,14.60
2022-12-23T02:42:38.871Z,14.90
2022-12-23T02:45:18.311Z,14.43
2022-12-23T02:47:49.102Z,15.20
2022-12-23T02:50:19.101Z,14.52
2022-12-23T02:52:48.215Z,14.32
2022-12-23T02:55:18.401Z,15.52
2022-12-23T02:57:47.684Z,14.23
2022-12-23T03:00:15.413Z,15.00
2022-12-23T03:02:43.963Z,15.15
2022-12-23T03:05:24.682Z,15.10
2022-12-23T03:07:52.577Z,14.60
2022-12-23T03:10:46.277Z,15.65
2022-12-23T03:13:32.405Z,16.23
2022-12-23T03:16:23.104Z,16.33
2022-12-23T03:19:01.029Z,20.63
2022-12-23T03:21:31.261Z,16.20
2022-12-23T03:24:11.704Z,14.57
2022-12-23T03:26:48.813Z,15.38
2022-12-23T03:29:42.484Z,15.80
2022-12-23T03:32:11.868Z,16.30
2022-12-23T03:37:08.660Z,15.10
2022-12-23T03:39:39.589Z,15.27
2022-12-23T03:42:11.690Z,16.27
2022-12-23T03:44:57.139Z,15.75
2022-12-23T03:47:30.887Z,16.10
2022-12-23T03:50:03.460Z,14.35
2022-12-23T03:52:34.017Z,15.90
2022-12-23T03:55:03.894Z,16.17
2022-12-23T03:57:59.720Z,15.13
2022-12-23T04:00:28.677Z,13.77
2022-12-23T04:03:06.689Z,14.65
2022-12-23T04:05:36.355Z,16.02
2022-12-23T04:08:22.378Z,16.55
2022-12-23T04:10:49.857Z,13.38
2022-12-23T04:13:17.189Z,13.45
2022-12-23T04:15:44.487Z,15.25
2022-12-23T04:18:12.053Z,14.82
2022-12-23T04:20:39.376Z,13.52
2022-12-23T04:23:06.660Z,14.18
2022-12-23T04:25:33.880Z,13.45
2022-12-23T04:28:01.917Z,14.10
2022-12-23T04:30:33.872Z,12.57
2022-12-23T04:33:02.120Z,13.63
2022-12-23T04:35:29.952Z,13.07
2022-12-23T04:37:57.277Z,12.98
2022-12-23T04:40:24.548Z,13.30
2022-12-23T04:42:51.831Z,13.27
2022-12-23T04:45:19.085Z,13.65
2022-12-23T04:47:46.387Z,12.35
2022-12-23T04:50:17.120Z,12.40
2022-12-23T04:52:44.549Z,13.80
2022-12-23T04:55:12.264Z,14.25
2022-12-23T04:57:40.013Z,13.63
2022-12-23T05:00:07.545Z,14.38
2022-12-23T05:02:34.958Z,13.05
2022-12-23T05:05:02.456Z,13.77
2022-12-23T05:07:29.789Z,14.02
2022-12-23T05:10:01.556Z,13.45
2022-12-23T05:12:29.944Z,16.17
2022-12-23T05:14:57.319Z,12.13
2022-12-23T05:17:24.669Z,13.35
2022-12-23T05:19:51.934Z,12.82
2022-12-23T05:22:19.233Z,12.57
2022-12-23T05:24:46.585Z,14.65
2022-12-23T05:27:13.870Z,15.38
2022-12-23T05:29:41.188Z,13.18
2022-12-23T05:32:08.589Z,14.40
2022-12-23T05:34:35.917Z,13.43
2022-12-23T05:37:03.123Z,14.68
2022-12-23T05:39:30.339Z,14.18
2022-12-23T05:41:57.621Z,12.85
2022-12-23T05:44:24.896Z,15.60
2022-12-23T05:46:52.188Z,13.40
2022-12-23T05:49:19.492Z,13.90
2022-12-23T05:51:46.771Z,13.38
2022-12-23T05:54:14.081Z,13.23
2022-12-23T05:56:41.545Z,13.55
2022-12-23T05:59:08.782Z,11.70
2022-12-23T06:01:36.079Z,13.95
2022-12-23T06:04:03.576Z,12.68
2022-12-23T06:06:31.046Z,13.50
2022-12-23T06:09:00.014Z,12.00
2022-12-23T06:13:54.840Z,11.80
2022-12-23T06:16:22.222Z,12.68
2022-12-23T06:18:49.529Z,11.95
2022-12-23T06:21:16.863Z,11.27
2022-12-23T06:23:44.167Z,12.25
2022-12-23T06:26:11.400Z,11.40
2022-12-23T06:28:38.657Z,12.65
2022-12-23T06:31:06.169Z,12.40
2022-12-23T06:33:33.371Z,11.98
2022-12-23T06:36:00.695Z,12.10
2022-12-23T06:38:27.883Z,12.00
2022-12-23T06:40:55.232Z,11.43
2022-12-23T06:43:22.488Z,13.00
2022-12-23T06:45:49.933Z,13.93
2022-12-23T06:48:17.432Z,14.20
2022-12-23T06:50:44.693Z,13.77
2022-12-23T06:53:11.917Z,12.85
2022-12-23T06:55:39.256Z,14.00
2022-12-23T06:58:06.682Z,14.45
2022-12-23T07:00:34.092Z,12.32
2022-12-23T07:03:01.608Z,12.35
2022-12-23T07:05:36.471Z,11.63
2022-12-23T07:08:04.449Z,14.15
2022-12-23T07:10:31.734Z,12.10
2022-12-23T07:12:58.984Z,11.73
2022-12-23T07:15:26.242Z,10.93
2022-12-23T07:17:54.975Z,11.77
2022-12-23T07:20:22.236Z,11.63
2022-12-23T07:22:50.312Z,11.82
2022-12-23T07:25:17.587Z,14.13
2022-12-23T07:27:44.842Z,13.93
2022-12-23T07:30:12.289Z,12.43
2022-12-23T07:32:39.594Z,13.57
2022-12-23T07:35:07.171Z,13.25
2022-12-23T07:37:34.380Z,14.73
2022-12-23T07:40:08.133Z,13.15
2022-12-23T07:42:45.665Z,16.50
2022-12-23T07:45:13.962Z,12.02
2022-12-23T07:47:41.295Z,14.82
2022-12-23T07:50:08.711Z,12.85
2022-12-23T07:52:36.134Z,14.18
2022-12-23T07:55:03.396Z,12.65
2022-12-23T07:57:30.585Z,13.07
2022-12-23T07:59:58.051Z,13.00
2022-12-23T08:02:25.767Z,13.15
2022-12-23T08:04:53.250Z,13.48
2022-12-23T08:07:20.497Z,13.98
2022-12-23T08:09:47.737Z,13.75
2022-12-23T08:12:15.067Z,13.15
2022-12-23T08:14:42.378Z,15.45
2022-12-23T08:17:09.769Z,14.18
2022-12-23T08:19:37.111Z,17.40
2022-12-23T08:22:04.377Z,16.77
2022-12-23T08:24:31.615Z,14.40
2022-12-23T08:26:58.885Z,17.45
2022-12-23T08:29:29.899Z,17.17
2022-12-23T08:31:59.850Z,17.48
2022-12-23T08:34:27.139Z,16.75
2022-12-23T08:36:54.422Z,18.67
2022-12-23T08:39:22.101Z,19.15
2022-12-23T08:41:49.460Z,17.65
2022-12-23T08:44:17.307Z,18.15
2022-12-23T08:46:44.692Z,22.05
2022-12-23T08:49:12.124Z,24.30
2022-12-23T08:51:39.453Z,22.48
2022-12-23T08:54:06.750Z,20.75
2022-12-23T08:56:35.537Z,21.17
2022-12-23T08:59:03.177Z,23.30
2022-12-23T09:01:31.467Z,21.60
2022-12-23T09:03:59.213Z,22.02
2022-12-23T09:06:30.012Z,21.77
2022-12-23T09:08:57.659Z,21.63
2022-12-23T09:11:26.795Z,22.92
2022-12-23T09:13:54.427Z,21.98
2022-12-23T09:16:22.133Z,22.58
2022-12-23T09:18:49.347Z,23.48
2022-12-23T09:21:18.280Z,27.80
2022-12-23T09:23:45.860Z,23.63
2022-12-23T09:26:14.957Z,25.02
2022-12-23T09:28:42.186Z,23.20
2022-12-23T09:31:13.576Z,24.13
2022-12-23T09:33:41.108Z,23.20
2022-12-23T09:36:08.619Z,28.30
2022-12-23T09:38:36.313Z,26.48
2022-12-23T09:41:04.734Z,25.23
2022-12-23T09:43:41.212Z,24.75
2022-12-23T09:46:26.132Z,23.02
2022-12-23T09:49:02.214Z,24.38
2022-12-23T09:51:30.621Z,27.58
2022-12-23T09:54:17.542Z,27.98
2022-12-23T09:57:03.786Z,27.15
2022-12-23T09:59:46.387Z,25.30
2022-12-23T10:02:34.262Z,28.50
2022-12-23T10:05:10.763Z,28.58
2022-12-23T10:07:44.924Z,29.92
2022-12-23T10:10:18.255Z,26.17
2022-12-23T10:12:47.905Z,28.77
2022-12-23T10:15:23.083Z,26.95
2022-12-23T10:17:53.027Z,26.75
2022-12-23T10:20:25.517Z,26.67
2022-12-23T10:22:53.707Z,24.88
2022-12-23T10:25:26.953Z,25.65
2022-12-23T10:27:54.393Z,27.88
2022-12-23T10:35:40.857Z,23.52
2022-12-23T10:38:20.890Z,21.90
2022-12-23T10:40:55.218Z,25.17
2022-12-23T10:43:25.674Z,23.58
2022-12-23T10:46:08.074Z,22.73
2022-12-23T10:48:38.410Z,22.48
2022-12-23T10:51:09.292Z,22.13
2022-12-23T10:53:42.577Z,21.15
2022-12-23T10:56:09.947Z,23.10
2022-12-23T10:58:43.074Z,22.38
2022-12-23T11:01:18.896Z,23.77
2022-12-23T11:03:58.859Z,20.70
2022-12-23T11:06:31.513Z,21.48
2022-12-23T11:09:03.276Z,21.80
2022-12-23T11:11:56.981Z,22.00
2022-12-23T11:14:32.023Z,23.23
2022-12-23T11:16:59.377Z,24.05
2022-12-23T11:19:26.696Z,20.05
2022-12-23T11:22:03.055Z,22.58
2022-12-23T11:24:39.542Z,21.35
2022-12-23T11:27:12.469Z,22.42
2022-12-23T11:29:40.766Z,24.08
2022-12-23T11:32:16.964Z,22.95
2022-12-23T11:34:45.890Z,23.98
2022-12-23T11:37:24.828Z,26.27
2022-12-23T11:39:52.150Z,24.98
2022-12-23T11:42:24.501Z,22.58
2022-12-23T11:44:54.283Z,28.25
2022-12-23T11:47:25.244Z,27.63
2022-12-23T11:49:56.933Z,31.73
2022-12-23T11:52:25.289Z,31.05
2022-12-23T11:54:54.934Z,31.42
2022-12-23T11:57:24.239Z,31.00
2022-12-23T11:59:56.324Z,29.50
2022-12-23T12:02:36.756Z,30.13
2022-12-23T12:05:16.346Z,36.85
2022-12-23T12:07:46.915Z,33.95
2022-12-23T12:10:19.335Z,33.08
2022-12-23T12:12:52.790Z,32.25
2022-12-23T12:15:42.363Z,33.85
2022-12-23T12:18:12.234Z,34.17
2022-12-23T12:20:47.261Z,29.48
2022-12-23T12:23:23.769Z,34.00
2022-12-23T12:25:53.590Z,32.42
2022-12-23T12:28:31.739Z,33.58
2022-12-23T12:31:04.916Z,32.15
2022-12-23T12:33:36.413Z,35.67
2022-12-23T12:36:07.196Z,35.47
2022-12-23T12:38:36.844Z,35.42
2022-12-23T12:41:33.506Z,35.38
2022-12-23T12:44:05.262Z,39.30
2022-12-23T12:46:40.263Z,35.63
2022-12-23T12:49:28.009Z,33.88
2022-12-23T12:52:02.509Z,38.60
2022-12-23T12:54:35.963Z,38.17
2022-12-23T12:57:04.151Z,30.67
2022-12-23T12:59:36.503Z,33.35
2022-12-23T13:02:22.806Z,30.10
2022-12-23T13:04:56.344Z,29.48
2022-12-23T13:07:26.650Z,29.35
2022-12-23T13:10:01.361Z,32.08
2022-12-23T13:12:47.338Z,30.50
2022-12-23T13:15:21.944Z,26.25
2022-12-23T13:18:01.909Z,26.17
2022-12-23T13:20:57.472Z,27.23
2022-12-23T13:23:45.902Z,25.45
2022-12-23T13:26:19.254Z,25.77
2022-12-23T13:28:46.521Z,26.45
2022-12-23T13:31:26.594Z,26.48
2022-12-23T13:34:05.486Z,28.13
2022-12-23T13:36:42.139Z,24.98
2022-12-23T13:39:21.081Z,25.92
2022-12-23T13:41:51.135Z,26.48
2022-12-23T13:44:18.818Z,27.73
2022-12-23T13:46:52.342Z,24.17
2022-12-23T13:49:26.071Z,25.83
2022-12-23T13:51:58.240Z,22.58
2022-12-23T13:54:38.815Z,26.15
2022-12-23T13:57:26.341Z,25.02
2022-12-23T14:00:04.949Z,24.77
2022-12-23T14:02:42.153Z,25.73
2022-12-23T14:05:27.832Z,24.20
2022-12-23T14:07:55.191Z,24.33
2022-12-23T14:10:23.689Z,26.45
2022-12-23T14:12:53.831Z,25.98
2022-12-23T14:15:24.183Z,27.60
2022-12-23T14:17:51.550Z,26.30
2022-12-23T14:20:27.836Z,26.85
2022-12-23T14:23:01.351Z,23.70
2022-12-23T14:25:28.536Z,24.15
2022-12-23T14:28:10.735Z,23.17
2022-12-23T14:30:47.992Z,27.25
2022-12-23T14:33:26.700Z,24.98
2022-12-23T14:35:57.016Z,24.23
2022-12-23T14:38:32.245Z,22.38
2022-12-23T14:41:19.962Z,23.20
2022-12-23T14:43:47.196Z,24.40
2022-12-23T14:46:33.507Z,24.50
2022-12-23T14:49:29.894Z,26.17
2022-12-23T14:51:50.921Z,24.52
2022-12-23T14:54:19.324Z,22.88
2022-12-23T14:57:03.642Z,22.40
2022-12-23T14:59:38.417Z,24.98
2022-12-23T15:02:35.470Z,21.88
2022-12-23T15:05:03.380Z,25.13
2022-12-23T15:07:42.676Z,23.80
2022-12-23T15:10:10.094Z,24.58
2022-12-23T15:12:38.946Z,23.38
2022-12-23T15:15:07.941Z,24.30
2022-12-23T15:17:36.445Z,25.65
2022-12-23T15:20:24.540Z,23.38
2022-12-23T15:22:55.171Z,23.48
2022-12-23T15:25:25.154Z,25.05
2022-12-23T15:28:00.947Z,25.60
2022-12-23T15:30:29.962Z,27.00
2022-12-23T15:32:59.169Z,23.23
2022-12-23T15:35:32.286Z,28.77
2022-12-23T15:38:00.947Z,26.40
2022-12-23T15:40:33.901Z,24.55
2022-12-23T15:43:01.805Z,29.60
2022-12-23T15:45:35.233Z,25.60
2022-12-23T15:48:03.567Z,23.13
2022-12-23T15:50:31.140Z,24.83
2022-12-23T15:53:03.903Z,23.85
2022-12-23T15:55:32.432Z,25.63
2022-12-23T15:58:00.773Z,21.83
2022-12-23T16:00:31.717Z,21.92
2022-12-23T16:03:01.662Z,21.83
2022-12-23T16:05:34.412Z,22.30
2022-12-23T16:08:11.661Z,20.35
2022-12-23T16:10:39.463Z,22.23
2022-12-23T16:13:16.448Z,22.25
2022-12-23T16:15:43.696Z,25.27
2022-12-23T16:18:14.284Z,22.88
2022-12-23T16:20:46.488Z,22.38
2022-12-23T16:23:14.210Z,26.02
2022-12-23T16:25:45.470Z,25.98
2022-12-23T16:28:21.629Z,23.83
2022-12-23T16:30:50.189Z,27.02
2022-12-23T16:33:20.488Z,29.58
2022-12-23T16:35:47.764Z,27.42
2022-12-23T16:38:22.131Z,26.45
2022-12-23T16:40:53.648Z,23.88
2022-12-23T16:43:21.668Z,24.80
2022-12-23T16:46:02.673Z,25.65
2022-12-23T16:48:30.071Z,25.55
2022-12-23T16:50:57.857Z,22.38
2022-12-23T16:53:25.243Z,22.92
2022-12-23T16:55:56.824Z,23.25
2022-12-23T16:58:27.692Z,21.90
2022-12-23T17:00:55.266Z,23.20
2022-12-23T17:03:22.658Z,22.45
2022-12-23T17:05:49.971Z,21.30
2022-12-23T17:08:17.325Z,21.67
2022-12-23T17:10:45.056Z,20.25
2022-12-23T17:13:13.287Z,22.98
2022-12-23T17:15:40.607Z,21.95
2022-12-23T17:18:12.526Z,20.90
2022-12-23T17:20:39.924Z,20.50
2022-12-23T17:23:07.464Z,21.55
2022-12-23T17:25:34.710Z,22.67
2022-12-23T17:28:02.152Z,21.23
2022-12-23T17:30:29.579Z,20.02
2022-12-23T17:32:57.872Z,21.33
2022-12-23T17:35:25.797Z,21.90
2022-12-23T17:37:53.723Z,18.35
2022-12-23T17:40:23.276Z,20.00
2022-12-23T17:42:50.602Z,20.13
2022-12-23T17:45:27.227Z,20.02
2022-12-23T17:47:54.728Z,18.45
2022-12-23T17:50:22.205Z,19.17
2022-12-23T17:52:52.217Z,20.05
2022-12-23T17:55:23.449Z,18.27
2022-12-23T17:57:55.515Z,18.13
2022-12-23T18:00:33.657Z,20.77
2022-12-23T18:03:01.685Z,20.17
2022-12-23T18:05:30.266Z,16.88
2022-12-23T18:07:58.300Z,16.25
2022-12-23T18:10:27.489Z,18.38
2022-12-23T18:12:57.357Z,17.75
2022-12-23T18:15:25.887Z,17.45
2022-12-23T18:17:53.936Z,17.55
2022-12-23T18:20:22.188Z,16.25
2022-12-23T18:22:50.566Z,15.82
2022-12-23T18:25:19.184Z,17.33
2022-12-23T18:27:46.705Z,16.48
2022-12-23T18:30:14.164Z,16.40
2022-12-23T18:32:42.027Z,15.43
2022-12-23T18:35:25.322Z,15.85
2022-12-23T18:37:53.042Z,18.10
2022-12-23T18:40:20.539Z,17.73
2022-12-23T18:42:48.008Z,18.13
2022-12-23T18:45:24.502Z,23.35
2022-12-23T18:47:51.757Z,25.70
2022-12-23T18:50:19.003Z,26.08
2022-12-23T18:52:46.703Z,24.13
2022-12-23T18:55:14.074Z,27.35
2022-12-23T18:57:41.464Z,31.23
2022-12-23T19:00:12.629Z,30.80
2022-12-23T19:02:39.933Z,25.83
2022-12-23T19:05:07.572Z,27.75
2022-12-23T19:07:35.099Z,28.52
2022-12-23T19:10:02.344Z,30.63
2022-12-23T19:12:29.772Z,26.83
2022-12-23T19:14:57.067Z,32.13
2022-12-23T19:17:24.318Z,27.80
2022-12-23T19:19:51.509Z,26.05
2022-12-23T19:22:18.835Z,33.15
2022-12-23T19:25:04.050Z,29.95
2022-12-23T19:27:33.274Z,34.28
2022-12-23T19:30:00.637Z,32.92
2022-12-23T19:35:51.452Z,32.10
2022-12-23T19:38:27.584Z,27.38
2022-12-23T19:41:04.555Z,29.77
2022-12-23T19:43:32.649Z,29.70
2022-12-23T19:46:02.925Z,28.48
2022-12-23T19:48:31.139Z,20.70
2022-12-23T19:51:01.785Z,30.65
2022-12-23T19:53:34.336Z,35.25
2022-12-23T19:56:03.619Z,36.63
2022-12-23T19:58:35.862Z,31.67
2022-12-23T20:01:07.896Z,32.83
2022-12-23T20:03:38.397Z,29.38
2022-12-23T20:06:09.207Z,34.92
2022-12-23T20:08:40.589Z,34.80
2022-12-23T20:11:14.803Z,32.25
2022-12-23T20:13:42.468Z,26.23
2022-12-23T20:16:10.424Z,28.92
2022-12-23T20:18:41.515Z,29.58
2022-12-23T20:21:08.826Z,29.30
2022-12-23T20:23:36.233Z,27.75
2022-12-23T20:26:03.684Z,28.63
2022-12-23T20:28:33.824Z,32.25
2022-12-23T20:31:07.720Z,26.38
2022-12-23T20:33:39.643Z,26.60
2022-12-23T20:36:07.366Z,31.70
2022-12-23T20:38:38.679Z,24.80
2022-12-23T20:41:07.940Z,22.83
2022-12-23T20:43:36.211Z,25.63
2022-12-23T20:46:04.321Z,22.48
2022-12-23T20:48:34.599Z,27.13
2022-12-23T20:51:05.928Z,23.60
2022-12-23T20:53:33.416Z,25.15
2022-12-23T20:56:04.459Z,22.45
2022-12-23T20:58:50.643Z,17.23
2022-12-23T21:01:17.914Z,19.42
2022-12-23T21:03:45.304Z,20.08
2022-12-23T21:06:15.182Z,17.25
2022-12-23T21:08:43.314Z,23.08
2022-12-23T21:11:10.650Z,19.15
2022-12-23T21:13:40.322Z,15.18
2022-12-23T21:16:09.091Z,15.55
2022-12-23T21:18:36.798Z,16.58
2022-12-23T21:21:05.486Z,21.10
2022-12-23T21:23:32.969Z,23.42
2022-12-23T21:26:26.552Z,14.43
2022-12-23T21:28:54.420Z,20.00
2022-12-23T21:31:23.672Z,19.52
2022-12-23T21:33:51.926Z,16.00
2022-12-23T21:36:20.929Z,18.08
2022-12-23T21:38:49.054Z,19.80
2022-12-23T21:41:17.496Z,15.00
2022-12-23T21:43:44.771Z,13.77
2022-12-23T21:46:16.346Z,19.20
2022-12-23T21:48:44.396Z,14.90
2022-12-23T21:51:16.120Z,14.18
2022-12-23T21:53:44.335Z,13.02
2022-12-23T21:56:12.843Z,15.15
2022-12-23T21:58:40.153Z,15.15
2022-12-23T22:01:11.712Z,22.25
2022-12-23T22:03:39.100Z,15.20
2022-12-23T22:06:16.555Z,17.38
2022-12-23T22:08:44.276Z,16.80
2022-12-23T22:11:16.008Z,12.35
2022-12-23T22:13:44.972Z,17.38
2022-12-23T22:16:14.520Z,12.95
2022-12-23T22:18:42.133Z,14.00
2022-12-23T22:21:11.105Z,8.82
2022-12-23T22:23:38.569Z,15.35
2022-12-23T22:26:06.243Z,14.93
2022-12-23T22:28:34.060Z,13.73
2022-12-23T22:31:05.335Z,15.55
2022-12-23T22:33:33.105Z,16.92
2022-12-23T22:36:00.659Z,14.68
2022-12-23T22:38:27.983Z,17.67
2022-12-23T22:40:55.341Z,17.67
2022-12-23T22:43:22.636Z,15.00
2022-12-23T22:45:56.184Z,14.45
2022-12-23T22:48:23.782Z,12.55
2022-12-23T22:50:51.212Z,15.60
2022-12-23T22:53:18.477Z,13.85
2022-12-23T22:55:45.717Z,15.73
2022-12-23T22:58:12.959Z,17.73
2022-12-23T23:00:40.219Z,16.80
2022-12-23T23:03:07.487Z,11.13
2022-12-23T23:05:34.884Z,15.32
2022-12-23T23:08:02.138Z,15.23
2022-12-23T23:10:29.650Z,11.40
2022-12-23T23:12:56.865Z,16.05
2022-12-23T23:15:24.127Z,13.75
2022-12-23T23:17:51.366Z,16.73
2022-12-23T23:20:18.642Z,16.20
2022-12-23T23:22:45.914Z,19.88
2022-12-23T23:25:13.248Z,16.13
2022-12-23T23:27:40.578Z,18.23
2022-12-23T23:30:08.163Z,17.67
2022-12-23T23:32:35.517Z,15.00
2022-12-23T23:35:08.608Z,16.45
2022-12-23T23:37:38.395Z,17.55
2022-12-23T23:40:06.466Z,21.98
2022-12-23T23:42:33.732Z,21.67
2022-12-23T23:45:00.924Z,15.82
2022-12-23T23:47:28.189Z,20.60
2022-12-23T23:49:55.466Z,21.90
2022-12-23T23:52:22.992Z,21.92
2022-12-23T23:54:50.231Z,17.45
2022-12-23T23:57:17.456Z,26.27
2022-12-23T23:59:44.668Z,19.25
